createdAt,value
2017-09-16T00:00:14.290Z,9.89
2017-09-16T00:01:14.289Z,9.79
2017-09-16T00:02:14.322Z,9.86
2017-09-16T00:03:14.328Z,9.89
2017-09-16T00:04:14.347Z,9.56
2017-09-16T00:05:14.364Z,9.51
2017-09-16T00:06:14.381Z,9.54
2017-09-16T00:07:14.406Z,9.61
2017-09-16T00:08:14.419Z,9.69
2017-09-16T00:09:14.436Z,9.76
2017-09-16T00:10:14.461Z,9.76
2017-09-16T00:11:14.473Z,9.65
2017-09-16T00:12:14.490Z,9.77
2017-09-16T00:13:14.510Z,9.82
2017-09-16T00:14:14.525Z,9.72
2017-09-16T00:15:14.544Z,9.64
2017-09-16T00:16:14.573Z,9.82
2017-09-16T00:17:14.578Z,9.91
2017-09-16T00:18:14.606Z,9.80
2017-09-16T00:19:14.616Z,9.66
2017-09-16T00:20:14.640Z,9.77
2017-09-16T00:21:14.651Z,9.61
2017-09-16T00:22:14.673Z,9.72
2017-09-16T00:23:14.688Z,9.72
2017-09-16T00:24:14.708Z,9.61
2017-09-16T00:25:14.729Z,9.79
2017-09-16T00:26:14.743Z,9.51
2017-09-16T00:27:14.761Z,9.61
2017-09-16T00:28:14.775Z,9.69
2017-09-16T00:29:14.801Z,9.76
2017-09-16T00:30:14.821Z,9.50
2017-09-16T00:31:14.832Z,9.58
2017-09-16T00:32:14.855Z,9.59
2017-09-16T00:33:14.866Z,9.68
2017-09-16T00:34:14.884Z,9.65
2017-09-16T00:35:14.903Z,9.48
2017-09-16T00:36:14.919Z,9.56
2017-09-16T00:37:14.940Z,9.56
2017-09-16T00:38:14.967Z,9.51
2017-09-16T00:39:14.979Z,9.62
2017-09-16T00:40:14.993Z,9.55
2017-09-16T00:41:15.008Z,9.59
2017-09-16T00:42:15.038Z,9.43
2017-09-16T00:43:15.055Z,9.43
2017-09-16T00:44:15.063Z,9.61
2017-09-16T00:45:15.089Z,9.65
2017-09-16T00:46:15.103Z,9.61
2017-09-16T00:47:15.116Z,9.55
2017-09-16T00:48:15.140Z,9.58
2017-09-16T00:49:15.156Z,9.62
2017-09-16T00:50:15.177Z,9.55
2017-09-16T00:51:15.189Z,9.46
2017-09-16T00:52:15.217Z,9.50
2017-09-16T00:53:15.223Z,9.36
2017-09-16T00:54:15.249Z,9.37
2017-09-16T00:55:15.262Z,9.40
2017-09-16T00:56:15.283Z,9.47
2017-09-16T00:57:15.297Z,9.43
2017-09-16T00:58:15.315Z,9.43
2017-09-16T00:59:15.330Z,9.48
2017-09-16T01:00:15.351Z,9.51
2017-09-16T01:01:15.369Z,9.46
2017-09-16T01:02:15.387Z,9.47
2017-09-16T01:03:15.406Z,9.41
2017-09-16T01:04:15.420Z,9.34
2017-09-16T01:05:15.443Z,9.13
2017-09-16T01:06:15.454Z,9.26
2017-09-16T01:07:15.475Z,9.25
2017-09-16T01:08:15.500Z,9.32
2017-09-16T01:09:15.510Z,9.34
2017-09-16T01:10:15.527Z,9.31
2017-09-16T01:11:15.550Z,9.37
2017-09-16T01:12:15.570Z,9.34
2017-09-16T01:13:15.584Z,9.34
2017-09-16T01:14:15.601Z,9.32
2017-09-16T01:15:15.615Z,9.39
2017-09-16T01:16:15.636Z,9.32
2017-09-16T01:17:15.662Z,9.36
2017-09-16T01:18:15.685Z,9.40
2017-09-16T01:19:15.690Z,9.36
2017-09-16T01:20:15.703Z,9.40
2017-09-16T01:21:15.726Z,9.29
2017-09-16T01:22:15.754Z,9.32
2017-09-16T01:23:15.760Z,9.31
2017-09-16T01:24:15.781Z,9.31
2017-09-16T01:25:15.794Z,9.22
2017-09-16T01:26:15.817Z,9.18
2017-09-16T01:27:15.834Z,9.14
2017-09-16T01:28:15.856Z,9.08
2017-09-16T01:29:15.865Z,9.14
2017-09-16T01:30:15.888Z,9.21
2017-09-16T01:31:15.907Z,9.14
2017-09-16T01:32:15.921Z,9.14
2017-09-16T01:33:15.940Z,9.23
2017-09-16T01:34:15.956Z,9.16
2017-09-16T01:35:15.977Z,9.23
2017-09-16T01:36:15.991Z,9.19
2017-09-16T01:37:16.019Z,9.23
2017-09-16T01:38:16.031Z,9.21
2017-09-16T01:39:16.046Z,9.16
2017-09-16T01:40:16.068Z,9.10
2017-09-16T01:41:16.079Z,9.04
2017-09-16T01:42:16.105Z,9.10
2017-09-16T01:43:16.118Z,9.22
2017-09-16T01:44:16.134Z,9.03
2017-09-16T01:45:16.153Z,9.02
2017-09-16T01:46:16.181Z,9.04
2017-09-16T01:47:16.188Z,9.00
2017-09-16T01:48:16.209Z,8.94
2017-09-16T01:49:16.225Z,9.03
2017-09-16T01:50:16.244Z,8.89
2017-09-16T01:51:16.267Z,8.87
2017-09-16T01:52:16.285Z,9.02
2017-09-16T01:53:16.295Z,8.85
2017-09-16T01:54:16.311Z,9.00
2017-09-16T01:55:16.330Z,9.04
2017-09-16T01:56:16.350Z,9.16
2017-09-16T01:57:16.371Z,9.18
2017-09-16T01:58:16.389Z,9.23
2017-09-16T01:59:16.406Z,9.19
2017-09-16T02:00:16.433Z,9.13
2017-09-16T02:01:16.441Z,8.94
2017-09-16T02:02:16.454Z,8.99
2017-09-16T02:03:16.486Z,8.97
2017-09-16T02:04:16.493Z,8.94
2017-09-16T02:05:16.507Z,8.94
2017-09-16T02:06:16.525Z,9.04
2017-09-16T02:07:16.543Z,9.06
2017-09-16T02:08:16.565Z,9.06
2017-09-16T02:09:16.578Z,9.03
2017-09-16T02:10:16.599Z,9.16
2017-09-16T02:11:16.621Z,9.11
2017-09-16T02:12:16.642Z,9.13
2017-09-16T02:13:16.646Z,9.13
2017-09-16T02:14:16.666Z,9.06
2017-09-16T02:15:16.687Z,9.04
2017-09-16T02:16:16.707Z,9.08
2017-09-16T02:17:16.719Z,9.02
2017-09-16T02:18:16.744Z,8.92
2017-09-16T02:19:16.767Z,8.99
2017-09-16T02:20:16.793Z,9.06
2017-09-16T02:21:16.792Z,8.95
2017-09-16T02:22:16.812Z,9.02
2017-09-16T02:23:16.831Z,9.00
2017-09-16T02:24:16.842Z,8.88
2017-09-16T02:25:16.861Z,8.92
2017-09-16T02:26:16.879Z,8.82
2017-09-16T02:27:16.897Z,8.82
2017-09-16T02:28:16.932Z,8.82
2017-09-16T02:29:16.935Z,8.81
2017-09-16T02:30:16.958Z,8.81
2017-09-16T02:31:16.972Z,8.76
2017-09-16T02:32:16.983Z,8.78
2017-09-16T02:33:17.003Z,8.78
2017-09-16T02:34:17.028Z,8.82
2017-09-16T02:35:17.039Z,8.81
2017-09-16T02:36:17.057Z,8.91
2017-09-16T02:37:17.084Z,8.79
2017-09-16T02:38:17.091Z,8.85
2017-09-16T02:39:17.111Z,8.88
2017-09-16T02:40:17.129Z,8.87
2017-09-16T02:41:17.145Z,8.85
2017-09-16T02:42:17.161Z,8.76
2017-09-16T02:43:17.181Z,8.85
2017-09-16T02:44:17.193Z,8.84
2017-09-16T02:45:17.219Z,8.84
2017-09-16T02:46:17.230Z,8.88
2017-09-16T02:47:17.254Z,8.78
2017-09-16T02:48:17.271Z,8.85
2017-09-16T02:49:17.285Z,8.84
2017-09-16T02:50:17.303Z,8.85
2017-09-16T02:51:17.328Z,8.74
2017-09-16T02:52:17.345Z,8.73
2017-09-16T02:53:17.366Z,8.66
2017-09-16T02:54:17.378Z,8.79
2017-09-16T02:55:17.394Z,8.71
2017-09-16T02:56:17.410Z,8.73
2017-09-16T02:57:17.429Z,8.74
2017-09-16T02:58:17.449Z,8.70
2017-09-16T02:59:17.465Z,8.74
2017-09-16T03:00:17.477Z,8.78
2017-09-16T03:01:17.498Z,8.74
2017-09-16T03:02:17.517Z,8.73
2017-09-16T03:03:17.532Z,8.78
2017-09-16T03:04:17.547Z,8.71
2017-09-16T03:05:17.564Z,8.71
2017-09-16T03:06:17.589Z,8.74
2017-09-16T03:07:17.611Z,8.69
2017-09-16T03:08:17.622Z,8.60
2017-09-16T03:09:17.633Z,8.66
2017-09-16T03:10:17.656Z,8.70
2017-09-16T03:11:17.674Z,8.78
2017-09-16T03:12:17.689Z,8.71
2017-09-16T03:13:17.704Z,8.69
2017-09-16T03:14:17.735Z,8.60
2017-09-16T03:15:17.743Z,8.67
2017-09-16T03:16:17.764Z,8.78
2017-09-16T03:17:17.780Z,8.69
2017-09-16T03:18:17.794Z,8.64
2017-09-16T03:19:17.812Z,8.76
2017-09-16T03:20:17.830Z,8.71
2017-09-16T03:21:17.842Z,8.66
2017-09-16T03:22:17.862Z,8.73
2017-09-16T03:23:17.884Z,8.58
2017-09-16T03:24:17.903Z,8.49
2017-09-16T03:25:17.924Z,8.55
2017-09-16T03:26:17.931Z,8.46
2017-09-16T03:27:17.951Z,8.38
2017-09-16T03:28:17.970Z,8.55
2017-09-16T03:29:17.988Z,8.55
2017-09-16T03:30:18.005Z,8.55
2017-09-16T03:31:18.026Z,8.58
2017-09-16T03:32:18.041Z,8.52
2017-09-16T03:33:18.052Z,8.49
2017-09-16T03:34:18.073Z,8.48
2017-09-16T03:35:18.093Z,8.37
2017-09-16T03:36:18.111Z,8.45
2017-09-16T03:37:18.127Z,8.45
2017-09-16T03:38:18.145Z,8.41
2017-09-16T03:39:18.158Z,8.45
2017-09-16T03:40:18.177Z,8.48
2017-09-16T03:41:18.204Z,8.51
2017-09-16T03:42:18.210Z,8.60
2017-09-16T03:43:18.231Z,8.56
2017-09-16T03:44:18.249Z,8.52
2017-09-16T03:45:18.276Z,8.48
2017-09-16T03:46:18.285Z,8.52
2017-09-16T03:47:18.303Z,8.55
2017-09-16T03:48:18.318Z,8.55
2017-09-16T03:49:18.335Z,8.55
2017-09-16T03:50:18.356Z,8.64
2017-09-16T03:51:18.371Z,8.52
2017-09-16T03:52:18.393Z,8.52
2017-09-16T03:53:18.407Z,8.51
2017-09-16T03:54:18.422Z,8.56
2017-09-16T03:55:18.440Z,8.56
2017-09-16T03:56:18.460Z,8.38
2017-09-16T03:57:18.482Z,8.53
2017-09-16T03:58:18.497Z,8.46
2017-09-16T03:59:18.513Z,8.38
2017-09-16T04:00:18.530Z,8.37
2017-09-16T04:01:18.546Z,8.44
2017-09-16T04:02:18.566Z,8.42
2017-09-16T04:03:18.579Z,8.42
2017-09-16T04:04:18.600Z,8.19
2017-09-16T04:05:18.614Z,8.16
2017-09-16T04:06:18.631Z,8.19
2017-09-16T04:07:18.653Z,8.26
2017-09-16T04:08:18.666Z,8.20
2017-09-16T04:09:18.686Z,8.19
2017-09-16T04:10:18.703Z,8.27
2017-09-16T04:11:18.723Z,8.31
2017-09-16T04:12:18.739Z,8.10
2017-09-16T04:13:18.756Z,8.26
2017-09-16T04:14:18.770Z,8.26
2017-09-16T04:15:18.787Z,8.23
2017-09-16T04:16:18.811Z,8.13
2017-09-16T04:17:18.826Z,8.28
2017-09-16T04:18:18.846Z,8.33
2017-09-16T04:19:18.856Z,8.27
2017-09-16T04:20:18.877Z,8.28
2017-09-16T04:21:18.895Z,8.31
2017-09-16T04:22:18.914Z,8.38
2017-09-16T04:23:18.929Z,8.34
2017-09-16T04:24:18.946Z,8.38
2017-09-16T04:25:18.959Z,8.27
2017-09-16T04:26:18.976Z,8.33
2017-09-16T04:27:18.997Z,8.28
2017-09-16T04:28:19.016Z,8.24
2017-09-16T04:29:19.033Z,8.16
2017-09-16T04:30:19.056Z,7.98
2017-09-16T04:31:19.073Z,7.98
2017-09-16T04:32:19.084Z,7.94
2017-09-16T04:33:19.100Z,7.90
2017-09-16T04:34:19.116Z,7.70
2017-09-16T04:35:19.135Z,7.50
2017-09-16T04:36:19.153Z,7.54
2017-09-16T04:37:19.173Z,7.79
2017-09-16T04:38:19.196Z,7.70
2017-09-16T04:39:19.211Z,7.88
2017-09-16T04:40:19.222Z,7.83
2017-09-16T04:41:19.240Z,7.90
2017-09-16T04:42:19.259Z,8.01
2017-09-16T04:43:19.272Z,8.15
2017-09-16T04:44:19.296Z,7.98
2017-09-16T04:45:19.310Z,7.98
2017-09-16T04:46:19.327Z,7.97
2017-09-16T04:47:19.351Z,8.03
2017-09-16T04:48:19.361Z,7.90
2017-09-16T04:49:19.379Z,7.97
2017-09-16T04:50:19.393Z,7.98
2017-09-16T04:51:19.411Z,8.01
2017-09-16T04:52:19.449Z,7.76
2017-09-16T04:53:19.448Z,7.94
2017-09-16T04:54:19.462Z,8.05
2017-09-16T04:55:19.484Z,7.98
2017-09-16T04:56:19.500Z,7.97
2017-09-16T04:57:19.513Z,8.01
2017-09-16T04:58:19.532Z,8.01
2017-09-16T04:59:19.550Z,7.98
2017-09-16T05:00:19.567Z,7.82
2017-09-16T05:01:19.580Z,7.93
2017-09-16T05:02:19.602Z,8.15
2017-09-16T05:03:19.621Z,8.13
2017-09-16T05:04:19.645Z,8.41
2017-09-16T05:05:19.654Z,8.34
2017-09-16T05:06:19.671Z,8.48
2017-09-16T05:07:19.691Z,8.45
2017-09-16T05:08:19.708Z,8.30
2017-09-16T05:09:19.719Z,8.31
2017-09-16T05:10:19.739Z,8.45
2017-09-16T05:11:19.755Z,8.33
2017-09-16T05:12:19.772Z,8.41
2017-09-16T05:13:19.797Z,8.24
2017-09-16T05:14:19.809Z,8.20
2017-09-16T05:15:19.832Z,8.33
2017-09-16T05:16:19.841Z,8.34
2017-09-16T05:17:19.866Z,8.37
2017-09-16T05:18:19.879Z,8.30
2017-09-16T05:19:19.894Z,8.44
2017-09-16T05:20:19.917Z,8.51
2017-09-16T05:21:19.924Z,8.63
2017-09-16T05:22:19.947Z,8.67
2017-09-16T05:23:19.966Z,8.63
2017-09-16T05:24:19.986Z,8.56
2017-09-16T05:25:19.997Z,8.63
2017-09-16T05:26:20.018Z,8.58
2017-09-16T05:27:20.035Z,8.58
2017-09-16T05:28:20.049Z,8.73
2017-09-16T05:29:20.073Z,8.70
2017-09-16T05:30:20.095Z,8.73
2017-09-16T05:31:20.103Z,8.94
2017-09-16T05:32:20.123Z,8.71
2017-09-16T05:33:20.288Z,8.84
2017-09-16T05:34:20.167Z,8.81
2017-09-16T05:35:20.182Z,9.03
2017-09-16T05:36:20.190Z,9.16
2017-09-16T05:37:20.214Z,9.06
2017-09-16T05:38:20.227Z,9.08
2017-09-16T05:39:20.240Z,9.18
2017-09-16T05:40:20.258Z,9.34
2017-09-16T05:41:20.275Z,9.40
2017-09-16T05:42:20.293Z,9.21
2017-09-16T05:43:20.310Z,9.51
2017-09-16T05:44:20.328Z,9.58
2017-09-16T05:45:20.346Z,9.84
2017-09-16T05:46:20.366Z,9.86
2017-09-16T05:47:20.380Z,9.82
2017-09-16T05:48:20.402Z,9.79
2017-09-16T05:49:20.415Z,9.86
2017-09-16T05:50:20.437Z,9.94
2017-09-16T05:51:20.452Z,9.94
2017-09-16T05:52:20.472Z,9.87
2017-09-16T05:53:20.490Z,9.87
2017-09-16T05:54:20.505Z,10.13
2017-09-16T05:55:20.528Z,10.26
2017-09-16T05:56:20.542Z,10.13
2017-09-16T05:57:20.558Z,10.20
2017-09-16T05:58:20.580Z,10.17
2017-09-16T05:59:20.604Z,10.34
2017-09-16T06:00:20.616Z,10.23
2017-09-16T06:01:20.634Z,10.33
2017-09-16T06:02:20.655Z,10.30
2017-09-16T06:03:20.675Z,10.33
2017-09-16T06:04:20.688Z,10.22
2017-09-16T06:05:20.706Z,10.26
2017-09-16T06:06:20.721Z,9.99
2017-09-16T06:07:20.748Z,10.09
2017-09-16T06:08:20.767Z,10.17
2017-09-16T06:09:20.780Z,10.25
2017-09-16T06:10:20.792Z,10.30
2017-09-16T06:11:20.815Z,10.34
2017-09-16T06:12:20.828Z,10.46
2017-09-16T06:13:20.855Z,10.37
2017-09-16T06:14:20.868Z,10.49
2017-09-16T06:15:20.885Z,10.54
2017-09-16T06:16:20.904Z,10.42
2017-09-16T06:17:20.924Z,10.48
2017-09-16T06:18:20.941Z,10.33
2017-09-16T06:19:20.958Z,10.30
2017-09-16T06:20:20.979Z,10.38
2017-09-16T06:21:20.992Z,10.40
2017-09-16T06:22:21.011Z,10.42
2017-09-16T06:23:21.030Z,10.56
2017-09-16T06:24:21.052Z,10.59
2017-09-16T06:25:21.064Z,10.28
2017-09-16T06:26:21.082Z,10.30
2017-09-16T06:27:21.113Z,10.44
2017-09-16T06:28:21.133Z,10.53
2017-09-16T06:29:21.137Z,10.46
2017-09-16T06:30:21.173Z,10.44
2017-09-16T06:31:21.173Z,10.42
2017-09-16T06:32:21.196Z,10.25
2017-09-16T06:33:21.210Z,10.44
2017-09-16T06:34:21.226Z,10.41
2017-09-16T06:35:21.246Z,10.51
2017-09-16T06:36:21.263Z,10.54
2017-09-16T06:37:21.284Z,10.56
2017-09-16T06:38:21.314Z,10.56
2017-09-16T06:39:21.324Z,10.69
2017-09-16T06:40:21.349Z,10.82
2017-09-16T06:41:21.352Z,10.78
2017-09-16T06:42:21.368Z,10.61
2017-09-16T06:43:21.394Z,10.48
2017-09-16T06:44:21.407Z,10.49
2017-09-16T06:45:21.422Z,10.59
2017-09-16T06:46:21.443Z,10.64
2017-09-16T06:47:21.479Z,10.63
2017-09-16T06:48:21.476Z,10.53
2017-09-16T06:49:21.496Z,10.71
2017-09-16T06:50:21.522Z,10.69
2017-09-16T06:51:21.539Z,10.72
2017-09-16T06:52:21.559Z,10.86
2017-09-16T06:53:21.575Z,11.14
2017-09-16T06:54:21.588Z,11.29
2017-09-16T06:55:21.608Z,11.32
2017-09-16T06:56:21.633Z,11.12
2017-09-16T06:57:21.657Z,10.96
2017-09-16T06:58:21.665Z,11.15
2017-09-16T06:59:21.677Z,11.30
2017-09-16T07:00:21.713Z,11.35
2017-09-16T07:01:21.722Z,11.17
2017-09-16T07:02:21.757Z,11.15
2017-09-16T07:03:21.878Z,11.05
2017-09-16T07:04:21.777Z,11.10
2017-09-16T07:05:21.821Z,11.12
2017-09-16T07:06:21.807Z,11.15
2017-09-16T07:07:21.828Z,11.33
2017-09-16T07:08:21.917Z,11.45
2017-09-16T07:09:21.868Z,11.36
2017-09-16T07:10:21.886Z,11.43
2017-09-16T07:11:21.916Z,11.50
2017-09-16T07:12:21.946Z,11.63
2017-09-16T07:13:21.940Z,11.65
2017-09-16T07:14:21.956Z,11.57
2017-09-16T07:15:21.976Z,11.68
2017-09-16T07:16:21.995Z,11.60
2017-09-16T07:17:22.052Z,11.83
2017-09-16T07:18:22.047Z,11.68
2017-09-16T07:19:22.060Z,11.68
2017-09-16T07:20:22.074Z,11.52
2017-09-16T07:21:22.087Z,11.69
2017-09-16T07:22:22.143Z,11.80
2017-09-16T07:23:22.133Z,11.91
2017-09-16T07:24:22.144Z,11.86
2017-09-16T07:25:22.166Z,12.02
2017-09-16T07:26:22.182Z,12.07
2017-09-16T07:27:22.199Z,11.99
2017-09-16T07:28:22.220Z,11.80
2017-09-16T07:29:22.243Z,11.81
2017-09-16T07:30:22.257Z,12.13
2017-09-16T07:31:22.288Z,12.57
2017-09-16T07:32:22.301Z,12.47
2017-09-16T07:33:22.319Z,12.31
2017-09-16T07:34:22.334Z,12.13
2017-09-16T07:35:22.357Z,12.20
2017-09-16T07:36:22.380Z,12.24
2017-09-16T07:37:22.395Z,12.18
2017-09-16T07:38:22.410Z,12.42
2017-09-16T07:39:22.432Z,12.53
2017-09-16T07:40:22.456Z,12.18
2017-09-16T07:41:22.478Z,12.22
2017-09-16T07:42:22.486Z,12.31
2017-09-16T07:43:22.523Z,12.47
2017-09-16T07:44:22.534Z,12.60
2017-09-16T07:45:22.548Z,12.53
2017-09-16T07:46:22.569Z,12.75
2017-09-16T07:47:22.589Z,12.97
2017-09-16T07:48:22.611Z,12.53
2017-09-16T07:49:22.624Z,12.64
2017-09-16T07:50:22.658Z,12.53
2017-09-16T07:51:22.669Z,12.31
2017-09-16T07:52:22.693Z,12.36
2017-09-16T07:53:22.703Z,12.61
2017-09-16T07:54:22.728Z,12.97
2017-09-16T07:55:22.744Z,14.03
2017-09-16T07:56:22.762Z,14.32
2017-09-16T07:57:22.787Z,14.55
2017-09-16T07:58:22.810Z,14.07
2017-09-16T07:59:22.820Z,14.28
2017-09-16T08:00:22.842Z,14.26
2017-09-16T08:01:22.869Z,13.89
2017-09-16T08:02:22.883Z,13.74
2017-09-16T08:03:22.900Z,14.14
2017-09-16T08:04:22.927Z,14.65
2017-09-16T08:05:22.956Z,14.89
2017-09-16T08:06:22.968Z,14.81
2017-09-16T08:07:22.989Z,14.14
2017-09-16T08:08:23.007Z,14.07
2017-09-16T08:09:23.021Z,14.65
2017-09-16T08:10:23.049Z,14.97
2017-09-16T08:11:23.069Z,15.04
2017-09-16T08:12:23.084Z,15.42
2017-09-16T08:13:23.108Z,15.43
2017-09-16T08:14:23.130Z,14.86
2017-09-16T08:15:23.151Z,14.99
2017-09-16T08:16:23.169Z,15.58
2017-09-16T08:17:23.190Z,15.51
2017-09-16T08:18:23.226Z,15.65
2017-09-16T08:19:23.235Z,15.49
2017-09-16T08:20:23.272Z,15.59
2017-09-16T08:21:23.283Z,16.23
2017-09-16T08:22:23.296Z,16.20
2017-09-16T08:23:23.325Z,15.90
2017-09-16T08:24:23.340Z,15.22
2017-09-16T08:25:23.363Z,15.73
2017-09-16T08:26:23.389Z,15.73
2017-09-16T08:27:23.409Z,15.44
2017-09-16T08:28:23.422Z,14.69
2017-09-16T08:29:23.450Z,14.72
2017-09-16T08:30:23.464Z,14.59
2017-09-16T08:31:23.490Z,14.82
2017-09-16T08:32:23.519Z,14.86
2017-09-16T08:33:23.532Z,14.85
2017-09-16T08:34:23.568Z,14.91
2017-09-16T08:35:23.590Z,14.96
2017-09-16T08:36:23.607Z,14.99
2017-09-16T08:37:23.620Z,15.22
2017-09-16T08:38:23.637Z,14.81
2017-09-16T08:39:23.660Z,14.92
2017-09-16T08:40:23.687Z,15.28
2017-09-16T08:41:23.700Z,15.18
2017-09-16T08:42:23.723Z,14.69
2017-09-16T08:43:23.768Z,14.44
2017-09-16T08:44:23.763Z,14.30
2017-09-16T08:45:23.788Z,14.73
2017-09-16T08:46:23.810Z,14.51
2017-09-16T08:47:23.827Z,14.58
2017-09-16T08:48:23.847Z,14.58
2017-09-16T08:49:23.876Z,14.26
2017-09-16T08:50:23.889Z,14.32
2017-09-16T08:51:23.910Z,14.70
2017-09-16T08:52:23.937Z,14.32
2017-09-16T08:53:23.953Z,14.65
2017-09-16T08:54:23.979Z,14.30
2017-09-16T08:55:23.997Z,14.44
2017-09-16T08:56:24.023Z,14.54
2017-09-16T08:57:24.035Z,14.92
2017-09-16T08:58:24.064Z,14.60
2017-09-16T08:59:24.079Z,14.17
2017-09-16T09:00:24.104Z,14.14
2017-09-16T09:01:24.123Z,14.29
2017-09-16T09:02:24.151Z,14.78
2017-09-16T09:03:24.168Z,14.59
2017-09-16T09:04:24.192Z,14.62
2017-09-16T09:05:24.216Z,14.99
2017-09-16T09:06:24.228Z,14.91
2017-09-16T09:07:24.248Z,15.19
2017-09-16T09:08:24.266Z,14.96
2017-09-16T09:09:24.417Z,14.72
2017-09-16T09:10:24.306Z,15.27
2017-09-16T09:11:24.343Z,15.39
2017-09-16T09:12:24.360Z,15.39
2017-09-16T09:13:24.380Z,15.88
2017-09-16T09:14:24.396Z,15.61
2017-09-16T09:15:24.419Z,15.31
2017-09-16T09:16:24.442Z,15.44
2017-09-16T09:17:24.449Z,15.75
2017-09-16T09:18:24.483Z,15.54
2017-09-16T09:19:24.492Z,15.42
2017-09-16T09:20:24.525Z,15.73
2017-09-16T09:21:24.541Z,15.73
2017-09-16T09:22:24.557Z,15.57
2017-09-16T09:23:24.586Z,15.80
2017-09-16T09:24:24.601Z,16.15
2017-09-16T09:25:24.623Z,16.32
2017-09-16T09:26:24.649Z,16.46
2017-09-16T09:27:24.666Z,16.60
2017-09-16T09:28:24.685Z,16.64
2017-09-16T09:29:24.708Z,16.64
2017-09-16T09:30:24.726Z,16.69
2017-09-16T09:31:24.750Z,16.66
2017-09-16T09:32:24.774Z,16.32
2017-09-16T09:33:24.807Z,16.64
2017-09-16T09:34:24.812Z,17.04
2017-09-16T09:35:24.838Z,17.31
2017-09-16T09:36:24.858Z,17.54
2017-09-16T09:37:24.878Z,17.39
2017-09-16T09:38:24.901Z,16.87
2017-09-16T09:39:24.917Z,16.50
2017-09-16T09:40:24.943Z,16.89
2017-09-16T09:41:24.967Z,17.05
2017-09-16T09:42:24.988Z,17.02
2017-09-16T09:43:25.010Z,17.15
2017-09-16T09:44:25.034Z,17.20
2017-09-16T09:45:25.060Z,17.29
2017-09-16T09:46:25.198Z,16.99
2017-09-16T09:47:25.092Z,16.81
2017-09-16T09:48:25.116Z,16.86
2017-09-16T09:49:25.143Z,16.81
2017-09-16T09:50:25.165Z,17.08
2017-09-16T09:51:25.181Z,17.09
2017-09-16T09:52:25.205Z,17.39
2017-09-16T09:53:25.226Z,17.80
2017-09-16T09:54:25.249Z,17.94
2017-09-16T09:55:25.271Z,17.46
2017-09-16T09:56:25.300Z,17.79
2017-09-16T09:57:25.316Z,17.70
2017-09-16T09:58:25.337Z,17.64
2017-09-16T09:59:25.371Z,17.74
2017-09-16T10:00:25.376Z,18.00
2017-09-16T10:01:25.400Z,17.57
2017-09-16T10:02:25.432Z,17.42
2017-09-16T10:03:25.448Z,17.68
2017-09-16T10:04:25.471Z,17.86
2017-09-16T10:05:25.494Z,17.57
2017-09-16T10:06:25.518Z,18.19
2017-09-16T10:07:25.540Z,18.25
2017-09-16T10:08:25.553Z,18.37
2017-09-16T10:09:25.581Z,18.22
2017-09-16T10:10:25.601Z,18.15
2017-09-16T10:11:25.620Z,18.71
2017-09-16T10:12:25.650Z,18.89
2017-09-16T10:13:25.672Z,18.47
2017-09-16T10:14:25.685Z,18.43
2017-09-16T10:15:25.713Z,18.75
2017-09-16T10:16:25.733Z,18.84
2017-09-16T10:17:25.757Z,18.78
2017-09-16T10:18:25.778Z,18.89
2017-09-16T10:19:25.801Z,19.39
2017-09-16T10:20:25.825Z,19.45
2017-09-16T10:21:25.849Z,19.34
2017-09-16T10:22:25.874Z,19.27
2017-09-16T10:23:25.899Z,19.09
2017-09-16T10:24:25.915Z,18.37
2017-09-16T10:25:25.942Z,18.25
2017-09-16T10:26:25.967Z,18.88
2017-09-16T10:27:25.990Z,19.02
2017-09-16T10:28:26.005Z,19.34
2017-09-16T10:29:26.034Z,19.51
2017-09-16T10:30:26.049Z,19.81
2017-09-16T10:31:26.078Z,19.63
2017-09-16T10:32:26.101Z,19.34
2017-09-16T10:33:26.118Z,17.68
2017-09-16T10:34:26.145Z,17.46
2017-09-16T10:35:26.166Z,18.01
2017-09-16T10:36:26.185Z,18.60
2017-09-16T10:37:26.222Z,19.02
2017-09-16T10:38:26.246Z,19.09
2017-09-16T10:39:26.261Z,18.96
2017-09-16T10:40:26.277Z,18.86
2017-09-16T10:41:26.300Z,18.73
2017-09-16T10:42:26.326Z,18.58
2017-09-16T10:43:26.352Z,18.03
2017-09-16T10:44:26.390Z,18.11
2017-09-16T10:45:26.393Z,18.29
2017-09-16T10:46:26.418Z,17.67
2017-09-16T10:47:26.438Z,18.05
2017-09-16T10:48:26.464Z,17.06
2017-09-16T10:49:26.489Z,17.49
2017-09-16T10:50:26.511Z,17.63
2017-09-16T10:51:26.534Z,18.31
2017-09-16T10:52:26.554Z,18.56
2017-09-16T10:53:26.577Z,18.00
2017-09-16T10:54:26.596Z,18.00
2017-09-16T10:55:26.628Z,18.38
2017-09-16T10:56:26.648Z,18.22
2017-09-16T10:57:26.668Z,18.55
2017-09-16T10:58:26.687Z,18.47
2017-09-16T10:59:26.714Z,17.44
2017-09-16T11:00:26.735Z,17.60
2017-09-16T11:01:26.755Z,18.08
2017-09-16T11:02:26.778Z,18.29
2017-09-16T11:03:26.806Z,18.31
2017-09-16T11:04:26.820Z,18.63
2017-09-16T11:05:26.842Z,18.75
2017-09-16T11:06:26.865Z,18.04
2017-09-16T11:07:26.892Z,18.35
2017-09-16T11:08:26.913Z,18.58
2017-09-16T11:09:26.944Z,18.80
2017-09-16T11:10:26.961Z,18.68
2017-09-16T11:11:26.980Z,18.04
2017-09-16T11:12:27.001Z,18.13
2017-09-16T11:13:27.021Z,18.49
2017-09-16T11:14:27.044Z,18.84
2017-09-16T11:15:27.079Z,18.74
2017-09-16T11:16:27.088Z,18.38
2017-09-16T11:17:27.115Z,18.08
2017-09-16T11:18:27.136Z,17.27
2017-09-16T11:19:27.166Z,17.09
2017-09-16T11:20:27.175Z,16.90
2017-09-16T11:21:27.211Z,17.39
2017-09-16T11:22:27.225Z,16.87
2017-09-16T11:23:27.264Z,16.68
2017-09-16T11:24:27.265Z,17.30
2017-09-16T11:25:27.295Z,17.82
2017-09-16T11:26:27.317Z,18.19
2017-09-16T11:27:27.339Z,18.34
2017-09-16T11:28:27.355Z,18.89
2017-09-16T11:29:27.374Z,19.24
2017-09-16T11:30:27.397Z,19.18
2017-09-16T11:31:27.425Z,19.07
2017-09-16T11:32:27.476Z,19.29
2017-09-16T11:33:27.466Z,19.09
2017-09-16T11:34:27.485Z,19.09
2017-09-16T11:35:27.510Z,19.63
2017-09-16T11:36:27.531Z,19.85
2017-09-16T11:37:27.554Z,19.27
2017-09-16T11:38:27.578Z,18.77
2017-09-16T11:39:27.604Z,18.50
2017-09-16T11:40:27.629Z,19.15
2017-09-16T11:41:27.651Z,18.98
2017-09-16T11:42:27.683Z,18.93
2017-09-16T11:43:27.703Z,19.47
2017-09-16T11:44:27.716Z,19.49
2017-09-16T11:45:27.732Z,19.59
2017-09-16T11:46:27.760Z,19.51
2017-09-16T11:47:27.781Z,18.92
2017-09-16T11:48:27.807Z,19.31
2017-09-16T11:49:27.830Z,19.34
2017-09-16T11:50:27.851Z,19.45
2017-09-16T11:51:27.879Z,20.03
2017-09-16T11:52:27.897Z,19.92
2017-09-16T11:53:27.918Z,20.19
2017-09-16T11:54:27.946Z,20.26
2017-09-16T11:55:27.975Z,20.28
2017-09-16T11:56:27.989Z,20.14
2017-09-16T11:57:28.009Z,19.95
2017-09-16T11:58:28.034Z,19.99
2017-09-16T11:59:28.059Z,19.49
2017-09-16T12:00:28.082Z,19.22
2017-09-16T12:01:28.110Z,19.71
2017-09-16T12:02:28.136Z,20.24
2017-09-16T12:03:28.147Z,20.72
2017-09-16T12:04:28.175Z,20.41
2017-09-16T12:05:28.198Z,20.19
2017-09-16T12:06:28.230Z,20.21
2017-09-16T12:07:28.243Z,20.50
2017-09-16T12:08:28.270Z,20.06
2017-09-16T12:09:28.289Z,19.82
2017-09-16T12:10:28.316Z,19.89
2017-09-16T12:11:28.338Z,20.13
2017-09-16T12:12:28.365Z,19.70
2017-09-16T12:13:28.382Z,20.09
2017-09-16T12:14:28.418Z,19.64
2017-09-16T12:15:28.429Z,19.59
2017-09-16T12:16:28.463Z,19.12
2017-09-16T12:17:28.486Z,19.29
2017-09-16T12:18:28.497Z,19.30
2017-09-16T12:19:28.520Z,18.84
2017-09-16T12:20:28.547Z,19.24
2017-09-16T12:21:28.578Z,19.12
2017-09-16T12:22:28.588Z,19.21
2017-09-16T12:23:28.608Z,19.62
2017-09-16T12:24:28.635Z,20.02
2017-09-16T12:25:28.658Z,19.91
2017-09-16T12:26:28.674Z,19.12
2017-09-16T12:27:28.696Z,19.11
2017-09-16T12:28:28.724Z,18.77
2017-09-16T12:29:28.748Z,19.02
2017-09-16T12:30:28.777Z,18.62
2017-09-16T12:31:28.797Z,18.86
2017-09-16T12:32:28.817Z,19.15
2017-09-16T12:33:28.832Z,18.90
2017-09-16T12:34:28.858Z,19.09
2017-09-16T12:35:28.881Z,18.99
2017-09-16T12:36:28.902Z,19.29
2017-09-16T12:37:28.927Z,19.14
2017-09-16T12:38:28.966Z,19.11
2017-09-16T12:39:28.978Z,19.16
2017-09-16T12:40:29.000Z,19.12
2017-09-16T12:41:29.018Z,19.40
2017-09-16T12:42:29.040Z,19.37
2017-09-16T12:43:29.067Z,19.62
2017-09-16T12:44:29.090Z,19.89
2017-09-16T12:45:29.106Z,19.70
2017-09-16T12:46:29.131Z,19.39
2017-09-16T12:47:29.167Z,19.30
2017-09-16T12:48:29.186Z,19.09
2017-09-16T12:49:29.207Z,18.56
2017-09-16T12:50:29.223Z,19.18
2017-09-16T12:51:29.259Z,19.56
2017-09-16T12:52:29.265Z,19.62
2017-09-16T12:53:29.299Z,19.48
2017-09-16T12:54:29.322Z,19.29
2017-09-16T12:55:29.353Z,18.96
2017-09-16T12:56:29.362Z,19.18
2017-09-16T12:57:29.398Z,19.14
2017-09-16T12:58:29.404Z,19.24
2017-09-16T12:59:29.435Z,19.45
2017-09-16T13:00:29.449Z,19.86
2017-09-16T13:01:29.477Z,19.63
2017-09-16T13:02:29.502Z,19.70
2017-09-16T13:03:29.530Z,19.99
2017-09-16T13:04:29.545Z,19.84